Minerva Anna — SVNP — position and weather

sailwx.info

Track history (hours):
 
Tides and Currents Weather Stations Pressure Air Temp Water Temp Dewpoint Dewpoint Depression Visibility Wind Speed Wind Dir Waves Ship Positions

Minerva Anna

Last reported at 2017-Dec-11 16:58 UTC. Time now 2017-Dec-13 03:40 UTC.
Position N 25°44' W 079°29'.

Length 183 m; draft 11 m.

Type: Ship. MMSI: 240729000.

Date/timePositionNaut miles runAvg speedWind from/ knotsBaromVisibWave heightAir tempDewpointWater temp
2017-Dec-11 16:58N 25°44' W 079°29'  
2017-Dec-08 05:27N 29°21' W 094°42'710.2
2017-Dec-08 04:43N 29°24' W 094°49'210.3
2017-Dec-08 04:31N 29°26' W 094°50'510.1
2017-Dec-08 04:01N 29°31' W 094°53'510.2
2017-Dec-08 03:30N 29°35' W 094°56'510.1
2017-Dec-08 03:01N 29°40' W 094°58'4 8.4
2017-Dec-08 02:30N 29°43' W 095°01'4 7.4
2017-Dec-08 02:00N 29°46' W 095°04'  
2017-Dec-04 08:58N 29°17' W 094°28'  
Track history (hours):
 
Tides and Currents Weather Stations Pressure Air Temp Water Temp Dewpoint Dewpoint Depression Visibility Wind Speed Wind Dir Waves Ship Positions

Minerva Anna

Last reported at 2017-Dec-11 16:58 UTC. Time now 2017-Dec-13 03:40 UTC.
Position N 25°44' W 079°29'.

Length 183 m; draft 11 m.

Type: Ship. MMSI: 240729000.

Date/timePositionNaut miles runAvg speedWind from/ knotsBaromVisibWave heightAir tempDewpointWater temp
2017-Dec-11 16:58N 25°44' W 079°29'  
2017-Dec-08 05:27N 29°21' W 094°42'710.2
2017-Dec-08 04:43N 29°24' W 094°49'210.3
2017-Dec-08 04:31N 29°26' W 094°50'510.1
2017-Dec-08 04:01N 29°31' W 094°53'510.2
2017-Dec-08 03:30N 29°35' W 094°56'510.1
2017-Dec-08 03:01N 29°40' W 094°58'4 8.4
2017-Dec-08 02:30N 29°43' W 095°01'4 7.4
2017-Dec-08 02:00N 29°46' W 095°04'  
2017-Dec-04 08:58N 29°17' W 094°28'  

Dump ship's entire track history